Time;durP1;ratioP1;P1;durP2;ratioP2;P2;SDS_P1;SDS_P2;PMS_P1;PMS_P2;Temp;Humidity;BMP_temperature;BMP_pressure;BME280_temperature;BME280_humidity;BME280_pressure;Samples;Min_cycle;Max_cycle;Signal;HPM_P1;HPM_P2
2024/03/14 00:00:05;;;;;;;1.42;1.08;;;13.30;82.50;;;;;;5081998;28;20399;-62
2024/03/14 00:02:31;;;;;;;2.53;1.33;;;13.30;82.60;;;;;;5084209;28;20119;-64
2024/03/14 00:04:58;;;;;;;2.58;1.52;;;13.30;82.50;;;;;;5083723;28;20111;-63
2024/03/14 00:07:24;;;;;;;2.25;1.67;;;13.20;82.50;;;;;;5082252;28;20060;-64
2024/03/14 00:09:50;;;;;;;1.40;1.02;;;13.20;82.60;;;;;;5083980;28;20024;-62
2024/03/14 00:12:16;;;;;;;1.88;1.20;;;13.20;82.60;;;;;;5088858;28;20032;-64
2024/03/14 00:14:50;;;;;;;2.22;1.85;;;13.10;82.60;;;;;;5089941;28;20036;-64
2024/03/14 00:17:18;;;;;;;1.27;1.05;;;13.10;82.60;;;;;;5091648;28;20084;-64
2024/03/14 00:19:46;;;;;;;1.45;1.10;;;13.10;82.60;;;;;;5088753;28;20031;-63
2024/03/14 00:22:12;;;;;;;3.85;1.63;;;13.10;82.60;;;;;;5085299;28;20440;-64
2024/03/14 00:24:38;;;;;;;1.25;1.00;;;13.10;82.60;;;;;;5082901;28;20116;-65
2024/03/14 00:27:04;;;;;;;2.65;1.23;;;13.10;83.20;;;;;;5091539;28;20056;-63
2024/03/14 00:29:33;;;;;;;1.95;1.20;;;13.10;82.60;;;;;;5090797;28;20042;-62
2024/03/14 00:31:59;;;;;;;2.00;1.15;;;13.00;82.50;;;;;;5091136;28;20066;-62
2024/03/14 00:34:26;;;;;;;2.13;1.38;;;13.00;82.70;;;;;;5087798;28;20020;-64
2024/03/14 00:36:53;;;;;;;1.20;1.08;;;13.00;82.80;;;;;;5085236;28;20036;-64
2024/03/14 00:39:21;;;;;;;1.25;1.05;;;13.00;82.80;;;;;;5090886;28;20031;-64
2024/03/14 00:41:49;;;;;;;1.65;0.80;;;12.90;82.70;;;;;;5089220;28;20033;-63
2024/03/14 00:44:15;;;;;;;3.15;1.35;;;12.90;82.80;;;;;;5088660;28;20471;-62
2024/03/14 00:46:41;;;;;;;1.92;1.08;;;12.90;82.80;;;;;;5088956;28;20025;-62
2024/03/14 00:49:07;;;;;;;3.15;1.80;;;12.90;82.90;;;;;;5091523;28;20421;-65
2024/03/14 00:51:33;;;;;;;2.00;1.25;;;12.80;82.90;;;;;;5087710;28;20406;-64
2024/03/14 00:54:02;;;;;;;1.90;1.08;;;12.80;82.90;;;;;;5073666;28;20051;-62
2024/03/14 00:56:28;;;;;;;0.82;0.77;;;12.80;82.90;;;;;;5074796;28;20020;-63
2024/03/14 00:58:56;;;;;;;1.52;0.80;;;12.80;83.00;;;;;;5089637;28;20406;-62
2024/03/14 01:01:23;;;;;;;1.38;1.00;;;12.80;82.90;;;;;;5081754;28;20031;-62
2024/03/14 01:03:49;;;;;;;1.67;1.23;;;12.80;82.80;;;;;;5070263;28;20024;-62
2024/03/14 01:06:14;;;;;;;1.30;1.00;;;12.80;82.80;;;;;;5081568;28;20029;-64
2024/03/14 01:08:40;;;;;;;1.92;0.80;;;12.80;82.80;;;;;;5087875;28;20111;-63
2024/03/14 01:11:07;;;;;;;1.27;0.90;;;12.80;82.80;;;;;;5088378;28;20028;-62
2024/03/14 01:13:33;;;;;;;1.50;0.88;;;12.80;82.80;;;;;;5072428;28;20044;-62
2024/03/14 01:15:59;;;;;;;1.00;0.88;;;12.80;82.80;;;;;;5079431;28;20239;-63
2024/03/14 01:18:25;;;;;;;2.70;2.08;;;12.70;82.70;;;;;;5086749;28;20119;-64
2024/03/14 01:20:51;;;;;;;2.30;0.88;;;12.70;82.80;;;;;;5085737;28;20407;-64
2024/03/14 01:23:17;;;;;;;1.05;0.95;;;12.70;83.50;;;;;;5089608;28;20030;-65
2024/03/14 01:25:44;;;;;;;2.42;1.50;;;12.70;83.00;;;;;;5088451;28;20043;-64
2024/03/14 01:28:10;;;;;;;1.80;1.05;;;12.60;82.90;;;;;;5089503;28;20067;-65
2024/03/14 01:30:37;;;;;;;1.48;0.90;;;12.60;82.90;;;;;;5080520;28;20043;-62
2024/03/14 01:33:04;;;;;;;1.75;1.20;;;12.60;82.90;;;;;;5083306;28;20029;-62
2024/03/14 01:35:30;;;;;;;1.75;1.00;;;12.60;82.90;;;;;;5085793;28;20036;-62
2024/03/14 01:37:55;;;;;;;1.08;0.98;;;12.60;82.90;;;;;;5086452;28;20043;-62
2024/03/14 01:40:22;;;;;;;3.25;1.13;;;12.50;83.00;;;;;;5086272;28;20386;-63
2024/03/14 01:42:54;;;;;;;5.25;1.52;;;12.50;83.20;;;;;;5086603;28;20364;-63
2024/03/14 01:45:21;;;;;;;1.52;1.00;;;12.50;83.30;;;;;;5082194;28;20026;-63
2024/03/14 01:47:50;;;;;;;1.20;0.90;;;12.40;83.30;;;;;;5087289;28;20379;-65
2024/03/14 01:50:16;;;;;;;2.88;1.83;;;12.50;83.40;;;;;;5089085;28;20111;-65
2024/03/14 01:52:45;;;;;;;1.40;1.10;;;12.40;83.40;;;;;;5086300;28;20051;-62
2024/03/14 01:55:11;;;;;;;1.52;1.42;;;12.40;83.30;;;;;;5082637;28;20046;-62
2024/03/14 01:57:39;;;;;;;2.58;1.38;;;12.50;83.40;;;;;;5084832;28;20034;-62
2024/03/14 02:00:05;;;;;;;4.93;1.67;;;12.40;83.40;;;;;;5084421;28;20114;-62
2024/03/14 02:02:35;;;;;;;3.72;1.88;;;12.50;83.50;;;;;;5078873;28;20020;-64
2024/03/14 02:05:13;;;;;;;2.33;1.70;;;12.40;83.40;;;;;;5086274;28;20028;-62
2024/03/14 02:07:39;;;;;;;1.83;1.40;;;12.40;83.50;;;;;;5085481;28;20024;-62
2024/03/14 02:10:06;;;;;;;2.55;1.80;;;12.40;83.60;;;;;;5087787;28;20047;-64
2024/03/14 02:12:35;;;;;;;3.95;2.05;;;12.40;83.50;;;;;;5088157;28;20158;-65
2024/03/14 02:15:02;;;;;;;3.10;1.65;;;12.40;83.50;;;;;;5082881;28;20086;-64
2024/03/14 02:17:29;;;;;;;3.40;1.85;;;12.50;83.70;;;;;;5078329;28;20545;-65
2024/03/14 02:19:56;;;;;;;3.92;2.42;;;12.50;83.60;;;;;;5087987;28;20089;-64
2024/03/14 02:22:22;;;;;;;4.22;2.67;;;12.40;83.60;;;;;;5084344;28;20394;-63
2024/03/14 02:24:51;;;;;;;2.42;1.80;;;12.40;83.80;;;;;;5078106;28;20033;-64
2024/03/14 02:27:17;;;;;;;5.40;3.10;;;12.40;83.80;;;;;;5088841;28;20036;-64
2024/03/14 02:29:43;;;;;;;2.40;2.10;;;12.40;83.70;;;;;;5089852;28;20032;-64
2024/03/14 02:32:09;;;;;;;3.58;2.40;;;12.40;83.70;;;;;;5089255;28;20032;-64
2024/03/14 02:34:35;;;;;;;4.32;2.25;;;12.40;83.70;;;;;;5086542;28;20044;-61
2024/03/14 02:37:01;;;;;;;3.20;2.30;;;12.40;83.80;;;;;;5083504;28;20028;-62
2024/03/14 02:39:29;;;;;;;4.97;2.80;;;12.40;83.90;;;;;;5083189;28;20470;-61
2024/03/14 02:41:56;;;;;;;4.25;2.60;;;12.40;83.90;;;;;;5074884;28;20024;-62
2024/03/14 02:44:22;;;;;;;5.07;2.50;;;12.40;84.00;;;;;;5070950;28;20484;-61
2024/03/14 02:46:50;;;;;;;2.63;1.48;;;12.40;84.00;;;;;;5073854;28;20052;-61
2024/03/14 02:49:23;;;;;;;7.55;2.80;;;12.40;84.00;;;;;;5082870;28;20024;-62
2024/03/14 02:51:49;;;;;;;3.33;1.75;;;12.40;83.90;;;;;;5084577;28;20501;-61
2024/03/14 02:54:16;;;;;;;3.38;1.88;;;12.40;84.00;;;;;;5080051;28;20103;-61
2024/03/14 02:56:47;;;;;;;2.58;1.95;;;12.40;84.00;;;;;;5086875;28;20032;-62
2024/03/14 02:59:19;;;;;;;3.17;1.73;;;12.30;83.90;;;;;;5079031;28;20119;-62
2024/03/14 03:01:45;;;;;;;;;;;12.30;84.10;;;;;;5087020;28;20036;-62
2024/03/14 03:04:11;;;;;;;2.22;1.75;;;12.30;84.10;;;;;;5086031;28;20355;-62
2024/03/14 03:06:54;;;;;;;3.00;1.83;;;12.20;84.00;;;;;;5086646;28;20056;-61
2024/03/14 03:09:23;;;;;;;4.82;2.17;;;12.20;84.00;;;;;;5082222;28;20131;-61
2024/03/14 03:11:49;;;;;;;2.13;1.60;;;12.20;83.90;;;;;;5076317;28;20033;-61
2024/03/14 03:14:15;;;;;;;3.03;2.28;;;12.20;84.00;;;;;;5083364;28;20447;-61
2024/03/14 03:16:41;;;;;;;4.57;2.90;;;12.20;83.90;;;;;;5079272;28;20142;-61
2024/03/14 03:19:09;;;;;;;2.85;1.80;;;12.10;84.00;;;;;;5080936;28;20494;-62
2024/03/14 03:21:37;;;;;;;2.50;2.22;;;12.10;84.10;;;;;;5076988;28;20039;-61
2024/03/14 03:24:11;;;;;;;4.97;2.28;;;12.00;84.10;;;;;;5083276;28;20483;-61
2024/03/14 03:26:37;;;;;;;4.22;2.60;;;12.00;84.20;;;;;;5068327;28;20035;-61
2024/03/14 03:29:05;;;;;;;4.75;2.10;;;11.90;84.20;;;;;;5084224;28;20028;-61
2024/03/14 03:31:32;;;;;;;3.92;1.95;;;12.00;84.20;;;;;;5091685;28;20038;-62
2024/03/14 03:33:58;;;;;;;3.45;2.58;;;11.90;84.10;;;;;;5088567;28;20086;-61
2024/03/14 03:36:26;;;;;;;3.83;2.97;;;11.90;84.10;;;;;;5084223;28;20387;-61
2024/03/14 03:38:52;;;;;;;4.30;1.88;;;11.80;84.10;;;;;;5090294;28;20534;-61
2024/03/14 03:41:23;;;;;;;2.25;1.60;;;11.80;84.10;;;;;;5084891;28;20111;-62
2024/03/14 03:43:50;;;;;;;3.03;1.83;;;11.80;84.10;;;;;;5080235;28;20390;-62
2024/03/14 03:46:16;;;;;;;3.78;3.10;;;11.70;84.10;;;;;;5077822;28;20032;-61
2024/03/14 03:48:42;;;;;;;3.70;2.58;;;11.70;84.20;;;;;;5091074;28;20028;-64
2024/03/14 03:51:08;;;;;;;2.53;1.40;;;11.60;84.20;;;;;;5085915;28;20036;-63
2024/03/14 03:53:34;;;;;;;3.55;1.63;;;11.60;84.20;;;;;;5093016;28;20035;-63
2024/03/14 03:56:03;;;;;;;3.00;2.00;;;11.50;84.20;;;;;;5086360;28;20475;-63
2024/03/14 03:58:32;;;;;;;4.38;1.75;;;11.50;84.10;;;;;;5084764;28;20479;-63
2024/03/14 04:01:07;;;;;;;3.22;1.80;;;11.50;84.20;;;;;;5090798;28;20436;-63
2024/03/14 04:03:36;;;;;;;3.20;2.25;;;11.40;84.10;;;;;;5080373;28;20028;-61
2024/03/14 04:06:02;;;;;;;2.38;1.48;;;11.40;84.30;;;;;;5087725;28;20097;-61
2024/03/14 04:08:30;;;;;;;4.65;1.80;;;11.40;84.20;;;;;;5089584;28;20494;-61
2024/03/14 04:10:56;;;;;;;4.53;1.83;;;11.40;84.30;;;;;;5085363;28;20032;-61
2024/03/14 04:13:22;;;;;;;2.60;1.73;;;11.30;84.10;;;;;;5083055;28;20032;-61
2024/03/14 04:15:48;;;;;;;3.88;2.75;;;11.30;84.20;;;;;;5082032;28;20414;-63
2024/03/14 04:18:14;;;;;;;4.20;2.72;;;11.30;84.10;;;;;;5089471;28;20085;-63
2024/03/14 04:20:40;;;;;;;4.75;2.22;;;11.30;84.00;;;;;;5089123;28;20036;-63
2024/03/14 04:23:06;;;;;;;4.90;2.53;;;11.20;84.10;;;;;;5093172;28;20031;-63
2024/03/14 04:25:33;;;;;;;3.15;1.73;;;11.20;84.20;;;;;;5088773;28;20088;-61
2024/03/14 04:27:59;;;;;;;5.20;2.25;;;11.20;84.10;;;;;;5090944;28;20032;-61
2024/03/14 04:30:25;;;;;;;4.18;2.22;;;11.20;84.10;;;;;;5089073;28;20028;-62
2024/03/14 04:32:51;;;;;;;3.70;2.10;;;11.20;84.10;;;;;;5087792;28;20035;-61
2024/03/14 04:35:20;;;;;;;2.17;1.75;;;11.10;84.30;;;;;;5076424;28;20098;-62
2024/03/14 04:37:51;;;;;;;3.00;1.83;;;11.10;84.30;;;;;;5081716;28;20154;-61
2024/03/14 04:40:19;;;;;;;2.83;1.90;;;11.10;84.40;;;;;;5079562;28;20043;-62
2024/03/14 04:42:46;;;;;;;2.88;2.08;;;11.10;84.30;;;;;;5089191;28;20384;-61
2024/03/14 04:45:17;;;;;;;3.45;2.13;;;11.10;84.30;;;;;;5080979;28;20024;-61
2024/03/14 04:47:46;;;;;;;4.63;2.58;;;11.10;84.30;;;;;;5088005;28;20386;-61
2024/03/14 04:50:18;;;;;;;2.95;1.50;;;11.10;84.30;;;;;;5084525;28;20033;-61
2024/03/14 04:52:45;;;;;;;5.78;2.10;;;11.10;84.30;;;;;;5079588;28;20114;-61
2024/03/14 04:55:11;;;;;;;2.75;1.95;;;11.00;84.30;;;;;;5083260;28;20028;-61
2024/03/14 04:57:41;;;;;;;4.88;2.17;;;11.00;84.30;;;;;;5078130;28;20391;-61
2024/03/14 05:00:19;;;;;;;2.53;1.70;;;11.10;84.40;;;;;;5087519;28;20044;-61
2024/03/14 05:02:49;;;;;;;3.53;2.20;;;11.10;84.30;;;;;;5088892;28;20024;-61
2024/03/14 05:05:15;;;;;;;3.67;2.00;;;11.00;84.30;;;;;;5088215;28;20028;-62
2024/03/14 05:07:42;;;;;;;5.25;3.00;;;11.10;84.30;;;;;;5088952;28;20039;-61
2024/03/14 05:10:09;;;;;;;5.28;2.42;;;11.00;84.30;;;;;;5086265;28;20062;-61
2024/03/14 05:12:35;;;;;;;2.55;1.77;;;11.00;84.90;;;;;;5086742;28;20044;-61
2024/03/14 05:15:10;;;;;;;3.40;2.10;;;11.00;84.40;;;;;;5089246;28;20032;-62
2024/03/14 05:17:36;;;;;;;5.00;2.42;;;11.00;84.40;;;;;;5083930;28;20059;-61
2024/03/14 05:20:06;;;;;;;2.83;1.63;;;11.00;84.40;;;;;;5088331;28;20030;-61
2024/03/14 05:22:32;;;;;;;3.38;2.20;;;11.00;84.50;;;;;;5088108;28;20551;-61
2024/03/14 05:24:58;;;;;;;4.38;2.17;;;11.00;84.50;;;;;;5080178;28;20032;-62
2024/03/14 05:27:27;;;;;;;3.20;1.65;;;11.00;84.60;;;;;;5079186;28;20040;-61
2024/03/14 05:29:53;;;;;;;5.10;2.53;;;11.00;84.60;;;;;;5076962;28;20024;-61
2024/03/14 05:32:21;;;;;;;4.80;2.33;;;11.00;84.60;;;;;;5085687;28;20055;-61
2024/03/14 05:34:48;;;;;;;2.83;2.17;;;11.00;84.80;;;;;;5089720;28;20032;-62
2024/03/14 05:37:15;;;;;;;6.10;1.98;;;11.00;84.80;;;;;;5077252;28;20060;-61
2024/03/14 05:39:44;;;;;;;3.08;1.88;;;11.00;84.90;;;;;;5086600;28;20477;-62
2024/03/14 05:42:12;;;;;;;3.47;2.55;;;10.90;84.80;;;;;;5084043;28;20028;-61
2024/03/14 05:44:41;;;;;;;3.13;1.70;;;10.90;84.90;;;;;;5087728;28;20056;-61
2024/03/14 05:47:11;;;;;;;1.98;1.45;;;10.90;84.90;;;;;;5084045;28;20459;-62
2024/03/14 05:49:38;;;;;;;3.33;1.73;;;11.00;84.90;;;;;;5084020;28;20020;-61
2024/03/14 05:52:04;;;;;;;3.22;2.53;;;11.00;84.90;;;;;;5086655;28;20109;-61
2024/03/14 05:54:31;;;;;;;3.50;2.20;;;11.00;84.70;;;;;;5087606;28;20024;-61
2024/03/14 05:56:57;;;;;;;4.25;1.92;;;11.00;84.70;;;;;;5078766;28;20090;-61
2024/03/14 05:59:23;;;;;;;3.88;1.85;;;11.00;84.80;;;;;;5084865;28;20035;-61
2024/03/14 06:01:49;;;;;;;4.32;2.13;;;11.00;84.90;;;;;;5076783;28;20020;-62
2024/03/14 06:04:14;;;;;;;2.97;1.70;;;10.90;84.90;;;;;;5084205;28;20020;-61
2024/03/14 06:06:40;;;;;;;3.38;2.58;;;11.00;84.90;;;;;;5087646;28;20028;-63
2024/03/14 06:09:12;;;;;;;1.75;1.40;;;10.90;84.80;;;;;;5081569;28;20078;-63
2024/03/14 06:11:38;;;;;;;2.35;1.65;;;11.00;84.80;;;;;;5080667;28;20020;-63
2024/03/14 06:14:03;;;;;;;2.38;1.50;;;10.90;84.90;;;;;;5082336;28;20034;-61
2024/03/14 06:16:29;;;;;;;2.22;1.50;;;10.90;85.00;;;;;;5087170;28;20051;-62
2024/03/14 06:18:54;;;;;;;2.90;1.67;;;10.90;84.90;;;;;;5081885;28;20039;-62
2024/03/14 06:21:21;;;;;;;3.95;2.35;;;10.90;84.70;;;;;;5085930;28;20103;-61
2024/03/14 06:23:51;;;;;;;3.97;1.92;;;10.90;84.70;;;;;;5086445;28;20171;-63
2024/03/14 06:26:17;;;;;;;2.10;1.25;;;10.90;84.80;;;;;;5082261;28;20068;-63
2024/03/14 06:28:43;;;;;;;2.40;1.75;;;10.90;84.80;;;;;;5086452;28;20063;-63
2024/03/14 06:31:11;;;;;;;3.30;2.22;;;10.90;84.80;;;;;;5088437;28;20051;-63
2024/03/14 06:33:38;;;;;;;2.10;1.35;;;10.90;85.10;;;;;;5085738;28;20103;-63
2024/03/14 06:36:04;;;;;;;5.05;2.22;;;10.90;84.90;;;;;;5084436;28;20110;-63
2024/03/14 06:38:31;;;;;;;2.63;1.77;;;10.90;84.90;;;;;;5069831;28;20494;-63
2024/03/14 06:40:57;;;;;;;1.98;1.50;;;10.90;84.90;;;;;;5085347;28;20034;-62
2024/03/14 06:43:23;;;;;;;2.13;1.40;;;10.90;85.00;;;;;;5080405;28;20491;-62
2024/03/14 06:45:49;;;;;;;2.95;1.65;;;10.90;85.00;;;;;;5065067;28;20414;-64
2024/03/14 06:48:20;;;;;;;2.88;1.70;;;11.00;85.10;;;;;;5083826;28;20024;-63
2024/03/14 06:50:46;;;;;;;2.08;1.60;;;11.00;85.00;;;;;;5083379;28;20024;-63
2024/03/14 06:53:12;;;;;;;2.65;2.00;;;11.10;85.10;;;;;;5086414;28;20515;-63
2024/03/14 06:55:38;;;;;;;2.65;1.83;;;11.10;85.00;;;;;;5071340;28;20032;-62
2024/03/14 06:58:04;;;;;;;1.67;1.40;;;11.20;85.00;;;;;;5080001;28;20028;-62
2024/03/14 07:00:30;;;;;;;2.33;1.70;;;11.20;84.90;;;;;;5079069;28;20369;-61
2024/03/14 07:02:56;;;;;;;3.55;1.17;;;11.30;84.90;;;;;;5075121;28;20055;-62
2024/03/14 07:05:24;;;;;;;3.45;1.75;;;11.30;85.00;;;;;;5087924;28;20032;-61
2024/03/14 07:07:49;;;;;;;1.55;1.42;;;11.30;85.00;;;;;;5084952;28;20049;-62
2024/03/14 07:10:16;;;;;;;2.45;1.40;;;11.40;85.10;;;;;;5081477;28;20588;-62
2024/03/14 07:12:45;;;;;;;2.80;2.17;;;11.50;85.00;;;;;;5091468;28;20368;-61
2024/03/14 07:15:12;;;;;;;3.85;2.17;;;11.50;84.90;;;;;;5078035;28;20032;-61
2024/03/14 07:17:38;;;;;;;3.92;1.60;;;11.60;84.80;;;;;;5084704;28;20483;-62
2024/03/14 07:20:10;;;;;;;1.48;1.15;;;11.60;84.70;;;;;;5085618;28;20031;-62
2024/03/14 07:22:43;;;;;;;2.13;1.20;;;11.70;84.70;;;;;;5080516;28;20033;-62
2024/03/14 07:25:09;;;;;;;3.33;1.85;;;11.80;84.60;;;;;;5087849;28;20042;-61
2024/03/14 07:27:35;;;;;;;2.38;1.75;;;11.80;84.40;;;;;;5069592;28;20525;-62
2024/03/14 07:30:07;;;;;;;1.83;1.45;;;11.80;84.50;;;;;;5091954;28;20032;-62
2024/03/14 07:32:35;;;;;;;4.35;2.13;;;11.90;84.50;;;;;;5086358;27;20040;-62
2024/03/14 07:35:02;;;;;;;2.53;1.58;;;11.90;84.50;;;;;;5091836;28;20024;-61
2024/03/14 07:37:28;;;;;;;3.25;1.38;;;12.00;84.40;;;;;;5083027;28;20051;-62
2024/03/14 07:39:54;;;;;;;2.97;1.75;;;12.00;84.30;;;;;;5084914;28;20105;-61
2024/03/14 07:42:21;;;;;;;2.05;1.38;;;12.10;84.30;;;;;;5078883;28;20017;-62
2024/03/14 07:44:47;;;;;;;1.70;1.40;;;12.10;84.20;;;;;;5089055;28;20537;-62
2024/03/14 07:47:19;;;;;;;6.05;1.70;;;12.20;84.20;;;;;;5086518;28;20033;-62
2024/03/14 07:49:48;;;;;;;2.22;1.52;;;12.20;84.20;;;;;;5082414;28;20029;-62
2024/03/14 07:52:16;;;;;;;2.90;1.52;;;12.20;84.10;;;;;;5083413;28;20495;-62
2024/03/14 07:54:44;;;;;;;2.97;1.55;;;12.30;84.20;;;;;;5091354;28;20114;-62
2024/03/14 07:57:12;;;;;;;2.10;1.30;;;12.40;84.10;;;;;;5090004;28;20415;-62
2024/03/14 07:59:38;;;;;;;2.08;1.52;;;12.50;84.50;;;;;;5089263;28;20031;-63
2024/03/14 08:02:07;;;;;;;1.83;1.55;;;12.50;83.80;;;;;;5090744;28;20478;-63
2024/03/14 08:04:41;;;;;;;4.20;1.70;;;12.60;83.80;;;;;;5085578;28;20043;-63
2024/03/14 08:07:13;;;;;;;2.28;1.30;;;12.60;83.70;;;;;;5086911;28;20024;-66
2024/03/14 08:09:43;;;;;;;1.95;1.40;;;12.60;83.60;;;;;;5088030;28;20483;-66
2024/03/14 08:12:09;;;;;;;1.75;1.55;;;12.70;83.60;;;;;;5086411;28;20034;-65
2024/03/14 08:14:35;;;;;;;2.20;1.60;;;12.70;83.40;;;;;;5087575;28;20107;-64
2024/03/14 08:17:06;;;;;;;3.08;1.65;;;12.80;83.40;;;;;;5082607;28;20429;-64
2024/03/14 08:19:33;;;;;;;1.73;1.58;;;12.90;83.30;;;;;;5086561;28;20153;-63
2024/03/14 08:21:58;;;;;;;2.55;1.58;;;13.00;83.10;;;;;;5086118;28;20016;-63
2024/03/14 08:24:39;;;;;;;3.15;1.55;;;13.00;83.00;;;;;;5088108;28;20498;-63
2024/03/14 08:27:05;;;;;;;2.00;1.80;;;13.10;82.90;;;;;;5085843;28;20039;-62
2024/03/14 08:29:31;;;;;;;2.35;1.55;;;13.10;82.90;;;;;;5081812;28;20477;-63
2024/03/14 08:31:59;;;;;;;2.15;1.42;;;13.20;82.80;;;;;;5085761;28;20028;-64
2024/03/14 08:34:27;;;;;;;3.22;1.70;;;13.30;82.80;;;;;;5084889;28;20089;-64
2024/03/14 08:36:54;;;;;;;2.45;1.50;;;13.40;82.60;;;;;;5090014;28;20148;-63
2024/03/14 08:39:22;;;;;;;2.25;1.35;;;13.40;82.40;;;;;;5083522;28;20040;-63
2024/03/14 08:41:48;;;;;;;1.67;1.23;;;13.50;82.30;;;;;;5079084;28;20024;-63
2024/03/14 08:44:13;;;;;;;5.55;2.03;;;13.60;82.20;;;;;;5072190;28;20020;-64
2024/03/14 08:46:40;;;;;;;1.98;1.40;;;13.60;82.10;;;;;;5086358;28;20043;-64
2024/03/14 08:49:06;;;;;;;2.58;1.63;;;13.60;81.90;;;;;;5088440;28;20111;-63
2024/03/14 08:51:37;;;;;;;2.33;1.50;;;13.60;81.80;;;;;;5078743;28;20201;-62
2024/03/14 08:54:14;;;;;;;2.97;1.88;;;13.60;81.90;;;;;;5083475;28;20032;-61
2024/03/14 08:56:40;;;;;;;2.42;1.52;;;13.70;81.80;;;;;;5086049;28;20035;-62
2024/03/14 08:59:07;;;;;;;2.40;1.65;;;13.70;81.50;;;;;;5084808;28;20433;-62
2024/03/14 09:01:33;;;;;;;2.95;1.88;;;13.80;81.30;;;;;;5084365;28;20027;-62
2024/03/14 09:03:59;;;;;;;1.40;1.25;;;13.90;81.30;;;;;;5079850;28;20032;-62
2024/03/14 09:06:28;;;;;;;1.45;1.33;;;14.10;81.20;;;;;;5069975;28;20069;-62
2024/03/14 09:09:00;;;;;;;1.30;1.15;;;14.30;80.70;;;;;;5066708;28;20399;-62
2024/03/14 09:11:28;;;;;;;1.87;1.40;;;14.50;80.50;;;;;;5079407;28;20025;-62
2024/03/14 09:13:54;;;;;;;1.90;1.40;;;14.70;80.10;;;;;;5073856;28;20091;-63
2024/03/14 09:16:21;;;;;;;2.22;1.85;;;14.90;79.70;;;;;;5077476;28;20040;-63
2024/03/14 09:18:47;;;;;;;2.85;1.52;;;14.90;79.30;;;;;;5079554;28;20483;-65
2024/03/14 09:21:13;;;;;;;2.30;1.48;;;14.90;79.10;;;;;;5078021;28;20036;-65
2024/03/14 09:23:40;;;;;;;3.70;1.63;;;14.80;78.90;;;;;;5077861;28;20912;-63
2024/03/14 09:26:05;;;;;;;3.17;1.52;;;14.80;79.20;;;;;;5073212;28;20031;-63
2024/03/14 09:28:31;;;;;;;2.47;1.20;;;14.80;79.00;;;;;;5081733;28;20479;-63
2024/03/14 09:31:00;;;;;;;1.65;1.30;;;14.70;79.30;;;;;;5074366;28;20437;-63
2024/03/14 09:33:30;;;;;;;2.40;2.08;;;14.80;79.40;;;;;;5085172;28;20533;-63
2024/03/14 09:35:56;;;;;;;2.00;1.40;;;14.90;79.10;;;;;;5071973;28;20495;-63
2024/03/14 09:38:22;;;;;;;1.65;1.30;;;15.00;79.10;;;;;;5069281;28;20085;-63
2024/03/14 09:40:48;;;;;;;2.80;1.35;;;15.10;78.80;;;;;;5069744;28;20034;-63
2024/03/14 09:43:14;;;;;;;5.18;1.17;;;15.20;78.60;;;;;;5081706;28;20077;-61
2024/03/14 09:45:44;;;;;;;1.65;1.35;;;15.20;78.40;;;;;;5079801;28;20092;-62
2024/03/14 09:48:10;;;;;;;1.90;1.25;;;15.30;78.30;;;;;;5085445;28;20489;-63
2024/03/14 09:50:36;;;;;;;2.90;1.50;;;15.30;78.20;;;;;;5086252;28;20061;-63
2024/03/14 09:53:05;;;;;;;2.40;1.15;;;15.40;77.90;;;;;;5082938;28;20079;-63
2024/03/14 09:55:32;;;;;;;1.77;1.25;;;15.30;77.70;;;;;;5081222;28;20028;-65
2024/03/14 09:57:58;;;;;;;2.50;1.20;;;15.30;77.60;;;;;;5084678;28;20494;-64
2024/03/14 10:00:26;;;;;;;4.10;1.15;;;15.40;77.80;;;;;;5082513;28;20826;-65
2024/03/14 10:02:55;;;;;;;2.10;1.38;;;15.40;77.50;;;;;;5089473;28;20115;-65
2024/03/14 10:05:21;;;;;;;1.45;0.90;;;15.40;77.30;;;;;;5086309;28;20534;-65
2024/03/14 10:07:47;;;;;;;2.15;1.00;;;15.50;77.20;;;;;;5084142;28;20487;-64
2024/03/14 10:10:14;;;;;;;2.80;1.08;;;15.50;77.20;;;;;;5088858;28;20032;-65
2024/03/14 10:12:51;;;;;;;1.63;1.35;;;15.60;77.30;;;;;;5089680;28;20043;-66
2024/03/14 10:15:18;;;;;;;1.25;1.02;;;15.60;77.10;;;;;;5081177;28;20036;-61
2024/03/14 10:17:45;;;;;;;1.73;1.25;;;15.70;76.90;;;;;;5083643;28;20036;-61
2024/03/14 10:20:14;;;;;;;1.90;1.25;;;15.80;76.80;;;;;;5083032;28;20024;-61
2024/03/14 10:22:46;;;;;;;1.55;1.08;;;15.90;76.80;;;;;;5079998;28;20497;-61
2024/03/14 10:25:17;;;;;;;1.90;1.20;;;16.10;76.40;;;;;;5100357;27;20029;-61
2024/03/14 10:27:48;;;;;;;1.70;1.30;;;16.20;76.00;;;;;;5082594;28;20059;-64
2024/03/14 10:30:14;;;;;;;1.90;1.30;;;16.30;75.40;;;;;;5078197;28;20024;-62
2024/03/14 10:32:40;;;;;;;1.00;0.90;;;16.40;75.50;;;;;;5080642;28;20044;-62
2024/03/14 10:35:10;;;;;;;1.52;1.00;;;16.50;75.30;;;;;;5076099;28;20497;-62
2024/03/14 10:37:57;;;;;;;1.02;0.90;;;16.50;74.70;;;;;;5088416;28;20032;-64
2024/03/14 10:40:28;;;;;;;2.08;1.15;;;16.50;74.50;;;;;;5079618;28;20032;-64
2024/03/14 10:42:55;;;;;;;1.45;1.35;;;16.50;74.30;;;;;;5086195;28;20106;-64
2024/03/14 10:45:21;;;;;;;1.30;1.20;;;16.60;74.20;;;;;;5085258;28;20039;-64
2024/03/14 10:47:53;;;;;;;1.20;1.10;;;16.70;73.90;;;;;;5080673;28;20032;-64
2024/03/14 10:50:22;;;;;;;1.40;1.00;;;16.90;73.90;;;;;;5079784;28;20036;-64
2024/03/14 10:52:49;;;;;;;1.25;1.15;;;17.00;73.70;;;;;;5085066;28;20387;-64
2024/03/14 10:55:21;;;;;;;1.17;1.08;;;17.20;73.40;;;;;;5082088;28;20020;-64
2024/03/14 10:57:49;;;;;;;;;;;17.40;73.20;;;;;;5077685;28;20032;-64
2024/03/14 11:00:20;;;;;;;1.80;1.23;;;17.60;73.00;;;;;;5080167;28;19908;-64
2024/03/14 11:02:50;;;;;;;3.22;1.52;;;17.70;72.20;;;;;;5089350;28;20035;-64
2024/03/14 11:05:26;;;;;;;1.27;1.13;;;17.60;71.60;;;;;;5085833;28;20450;-64
2024/03/14 11:08:00;;;;;;;2.25;1.45;;;17.70;71.80;;;;;;5075010;28;20031;-64
2024/03/14 11:10:31;;;;;;;1.65;1.50;;;17.70;71.60;;;;;;5087756;28;20032;-64
2024/03/14 11:13:14;;;;;;;1.70;1.23;;;17.80;71.20;;;;;;5088504;28;20036;-64
2024/03/14 11:15:40;;;;;;;0.98;0.80;;;17.90;71.50;;;;;;5076841;28;20072;-64
2024/03/14 11:18:16;;;;;;;1.35;1.00;;;18.10;71.30;;;;;;5086331;28;20186;-64
2024/03/14 11:20:51;;;;;;;0.95;0.90;;;18.30;70.50;;;;;;5080348;28;20021;-64
2024/03/14 11:23:22;;;;;;;1.73;1.15;;;18.40;70.30;;;;;;5082103;28;20514;-64
2024/03/14 11:25:55;;;;;;;2.83;1.25;;;18.60;70.40;;;;;;5075731;28;20036;-64
2024/03/14 11:28:24;;;;;;;1.65;1.02;;;18.70;70.00;;;;;;5086478;28;20028;-64
2024/03/14 11:30:55;;;;;;;1.33;1.23;;;18.90;69.50;;;;;;5076625;28;20076;-64
2024/03/14 11:33:21;;;;;;;1.40;0.93;;;18.90;68.00;;;;;;5070739;28;20036;-64
2024/03/14 11:35:49;;;;;;;2.05;1.05;;;18.80;67.70;;;;;;5085908;28;20375;-64
2024/03/14 11:38:21;;;;;;;0.73;0.73;;;18.80;67.70;;;;;;5081081;28;20036;-64
2024/03/14 11:40:47;;;;;;;2.17;1.10;;;18.90;67.90;;;;;;5079854;28;20097;-64
2024/03/14 11:43:23;;;;;;;0.98;0.70;;;19.10;67.60;;;;;;5080035;28;20493;-64
2024/03/14 11:45:55;;;;;;;1.13;1.02;;;19.20;66.50;;;;;;5079375;28;20112;-64
2024/03/14 11:48:22;;;;;;;;;;;19.30;66.50;;;;;;5086681;28;20028;-64
2024/03/14 11:50:52;;;;;;;2.05;1.13;;;19.50;65.80;;;;;;5088254;28;19908;-65
2024/03/14 11:53:20;;;;;;;1.25;0.85;;;19.60;65.50;;;;;;5091032;28;20463;-64
2024/03/14 11:55:49;;;;;;;1.10;1.00;;;19.70;63.60;;;;;;5089849;28;20028;-65
2024/03/14 11:58:16;;;;;;;1.05;0.95;;;19.60;63.40;;;;;;5090337;28;20043;-65
2024/03/14 12:00:44;;;;;;;0.68;0.68;;;19.60;64.10;;;;;;5089491;28;20514;-64
2024/03/14 12:03:11;;;;;;;0.98;0.88;;;19.80;64.50;;;;;;5090001;28;20028;-63
2024/03/14 12:05:41;;;;;;;1.58;0.80;;;20.00;63.90;;;;;;5090986;28;20039;-62
2024/03/14 12:08:13;;;;;;;1.35;0.90;;;20.10;61.50;;;;;;5086177;28;20043;-62
2024/03/14 12:10:41;;;;;;;1.23;0.70;;;19.90;61.60;;;;;;5088707;28;20032;-62
2024/03/14 12:13:21;;;;;;;0.40;0.40;;;20.00;61.60;;;;;;5086649;28;20028;-62
2024/03/14 12:15:59;;;;;;;0.80;0.60;;;20.10;61.70;;;;;;5084358;28;20032;-62
2024/03/14 12:18:24;;;;;;;1.42;0.82;;;20.10;60.50;;;;;;5089123;28;20522;-64
2024/03/14 12:20:50;;;;;;;2.42;0.98;;;20.20;60.30;;;;;;5078525;28;20028;-64
2024/03/14 12:23:16;;;;;;;0.60;0.60;;;20.30;59.70;;;;;;5085615;28;20069;-64
2024/03/14 12:25:46;;;;;;;0.80;0.75;;;20.40;59.80;;;;;;5080072;28;20039;-64
2024/03/14 12:28:14;;;;;;;0.82;0.63;;;20.50;60.10;;;;;;5086960;28;20055;-64
2024/03/14 12:30:43;;;;;;;1.42;0.77;;;20.60;59.90;;;;;;5087539;28;20047;-64
2024/03/14 12:33:13;;;;;;;1.75;0.88;;;20.70;59.70;;;;;;5077104;28;20055;-64
2024/03/14 12:35:42;;;;;;;0.90;0.90;;;20.70;59.30;;;;;;5080210;28;20407;-62
2024/03/14 12:38:12;;;;;;;2.05;0.77;;;20.70;57.90;;;;;;5077566;28;20111;-62
2024/03/14 12:40:39;;;;;;;0.88;0.70;;;20.80;58.30;;;;;;5084879;28;20043;-63
2024/03/14 12:43:06;;;;;;;0.65;0.65;;;20.90;58.80;;;;;;5085954;28;20050;-64
2024/03/14 12:45:33;;;;;;;0.75;0.65;;;21.10;58.20;;;;;;5084734;28;20032;-65
2024/03/14 12:48:00;;;;;;;0.60;0.60;;;21.20;58.00;;;;;;5088763;28;20497;-63
2024/03/14 12:50:28;;;;;;;1.00;0.70;;;21.20;57.70;;;;;;5086857;28;20032;-62